Time;durP1;ratioP1;P1;durP2;ratioP2;P2;SDS_P1;SDS_P2;PMS_P1;PMS_P2;Temp;Humidity;BMP_temperature;BMP_pressure;BME280_temperature;BME280_humidity;BME280_pressure;Samples;Min_cycle;Max_cycle;Signal;HPM_P1;HPM_P2
2023/04/04 00:00:30;;;;;;;0.00;0.00;;;;;;;10.57;55.34;102041.03;7358154;19;20010;-64
2023/04/04 00:02:56;;;;;;;0.00;0.00;;;;;;;10.56;55.69;102041.91;7356189;19;20978;-63
2023/04/04 00:05:21;;;;;;;0.00;0.00;;;;;;;10.53;55.73;102047.13;7355844;19;20576;-64
2023/04/04 00:07:47;;;;;;;0.00;0.00;;;;;;;10.51;55.23;102041.03;7352977;19;20022;-63
2023/04/04 00:10:13;;;;;;;0.00;0.00;;;;;;;10.50;55.65;102043.66;7357808;19;20763;-63
2023/04/04 00:12:38;;;;;;;0.00;0.00;;;;;;;10.47;55.49;102044.53;7353172;19;20507;-63
2023/04/04 00:15:04;;;;;;;0.10;0.10;;;;;;;10.47;55.41;102044.53;7356721;19;20029;-63
2023/04/04 00:17:29;;;;;;;0.00;0.00;;;;;;;10.34;55.31;102021.88;7356259;19;20018;-62
2023/04/04 00:19:56;;;;;;;0.00;0.00;;;;;;;10.47;55.47;102044.53;7359905;19;20362;-63
2023/04/04 00:22:21;;;;;;;0.00;0.00;;;;;;;10.46;55.84;102044.53;7355082;19;20022;-63
2023/04/04 00:24:47;;;;;;;0.00;0.00;;;;;;;10.48;55.43;102034.94;7359778;19;20184;-63
2023/04/04 00:27:13;;;;;;;0.05;0.05;;;;;;;10.47;56.19;102034.06;7354009;19;20678;-63
2023/04/04 00:29:38;;;;;;;0.00;0.00;;;;;;;10.49;56.01;102032.34;7356475;19;20021;-63
2023/04/04 00:32:04;;;;;;;0.00;0.00;;;;;;;10.51;56.29;102035.81;7357620;19;20501;-64
2023/04/04 00:34:29;;;;;;;0.00;0.00;;;;;;;10.53;56.30;102023.63;7354563;19;20688;-63
2023/04/04 00:36:55;;;;;;;0.00;0.00;;;;;;;10.55;56.20;102021.03;7357036;19;20097;-63
2023/04/04 00:39:22;;;;;;;0.10;0.10;;;;;;;10.57;56.49;102024.50;7357015;19;20014;-64
2023/04/04 00:41:48;;;;;;;0.00;0.00;;;;;;;10.57;56.30;102020.13;7358429;19;20015;-64
2023/04/04 00:44:14;;;;;;;0.00;0.00;;;;;;;10.60;56.75;102024.50;7358552;19;20409;-63
2023/04/04 00:46:40;;;;;;;0.00;0.00;;;;;;;10.61;56.74;102016.66;7358285;19;20022;-64
2023/04/04 00:49:05;;;;;;;0.00;0.00;;;;;;;10.63;56.88;102019.25;7352673;19;20030;-64
2023/04/04 00:51:31;;;;;;;0.10;0.10;;;;;;;10.60;56.54;102004.47;7358649;19;20442;-63
2023/04/04 00:53:57;;;;;;;0.00;0.00;;;;;;;10.53;56.37;101996.63;7352111;19;20006;-64
2023/04/04 00:56:24;;;;;;;0.00;0.00;;;;;;;10.66;56.73;102019.25;7358185;19;20002;-64
2023/04/04 00:58:49;;;;;;;0.05;0.05;;;;;;;10.67;56.45;102014.91;7355369;19;20017;-63
2023/04/04 01:01:15;;;;;;;0.00;0.00;;;;;;;10.67;56.42;102013.16;7351458;19;20014;-64
2023/04/04 01:03:41;;;;;;;0.00;0.00;;;;;;;10.67;56.90;102002.69;7353182;19;20371;-63
2023/04/04 01:06:07;;;;;;;0.00;0.00;;;;;;;10.67;57.03;102004.44;7349370;19;20122;-63
2023/04/04 01:08:36;;;;;;;0.00;0.00;;;;;;;10.69;55.97;102002.69;7353533;19;20010;-63
2023/04/04 01:11:02;;;;;;;0.10;0.10;;;;;;;10.67;55.53;101999.22;7350691;19;20014;-63
2023/04/04 01:13:27;;;;;;;0.00;0.00;;;;;;;10.65;55.89;102007.94;7353040;19;20007;-64
2023/04/04 01:15:53;;;;;;;0.00;0.00;;;;;;;10.62;55.82;102001.84;7352756;19;20011;-64
2023/04/04 01:18:20;;;;;;;0.00;0.00;;;;;;;10.63;55.67;101998.34;7357585;19;20006;-63
2023/04/04 01:20:59;;;;;;;0.05;0.05;;;;;;;10.63;56.05;102003.56;7343375;19;20027;-63
2023/04/04 01:23:42;;;;;;;0.00;0.00;;;;;;;10.61;56.13;101994.88;7354281;19;20026;-63
2023/04/04 01:26:08;;;;;;;0.00;0.00;;;;;;;10.59;56.45;101988.78;7355572;19;20010;-63
2023/04/04 01:28:33;;;;;;;0.00;0.00;;;;;;;10.57;56.84;101993.16;7355848;19;20046;-64
2023/04/04 01:31:01;;;;;;;0.00;0.00;;;;;;;10.59;56.15;101994.91;7355492;19;20115;-63
2023/04/04 01:33:41;;;;;;;0.00;0.00;;;;;;;10.59;56.09;101992.28;7356566;19;21002;-63
2023/04/04 01:36:21;;;;;;;0.00;0.00;;;;;;;10.55;56.25;101979.22;7354205;19;20473;-63
2023/04/04 01:39:02;;;;;;;0.10;0.10;;;;;;;10.58;56.12;101985.28;7349721;19;20017;-64
2023/04/04 01:41:32;;;;;;;0.00;0.00;;;;;;;10.58;55.83;101979.22;7356023;19;20015;-63
2023/04/04 01:43:58;;;;;;;0.00;0.00;;;;;;;10.55;55.56;101974.88;7355592;19;20025;-63
2023/04/04 01:46:23;;;;;;;0.00;0.00;;;;;;;10.52;55.15;101971.41;7354331;19;20010;-63
2023/04/04 01:48:49;;;;;;;0.00;0.00;;;;;;;10.50;55.47;101974.03;7353982;19;20305;-63
2023/04/04 01:51:15;;;;;;;0.00;0.00;;;;;;;10.49;54.89;101967.06;7355504;19;20021;-64
2023/04/04 01:53:40;;;;;;;0.10;0.10;;;;;;;10.48;55.33;101972.25;7357134;19;20588;-63
2023/04/04 01:56:06;;;;;;;0.08;0.08;;;;;;;10.45;55.46;101960.09;7357382;19;20344;-63
2023/04/04 01:58:31;;;;;;;0.00;0.00;;;;;;;10.43;54.98;101959.22;7347648;19;20037;-64
2023/04/04 02:00:57;;;;;;;0.00;0.00;;;;;;;10.40;55.71;101969.69;7356870;19;20668;-64
2023/04/04 02:03:22;;;;;;;0.00;0.00;;;;;;;10.38;55.69;101956.59;7351877;19;20597;-63
2023/04/04 02:05:48;;;;;;;0.00;0.00;;;;;;;10.30;55.90;101947.06;7358481;19;20046;-63
2023/04/04 02:08:14;;;;;;;0.00;0.00;;;;;;;10.40;56.14;101969.69;7356065;19;20841;-63
2023/04/04 02:10:39;;;;;;;0.00;0.00;;;;;;;10.36;56.29;101957.50;7358034;19;20359;-63
2023/04/04 02:13:05;;;;;;;0.00;0.00;;;;;;;10.39;56.25;101957.47;7354613;19;20019;-63
2023/04/04 02:15:33;;;;;;;0.00;0.00;;;;;;;10.41;56.30;101966.19;7355165;19;20002;-63
2023/04/04 02:17:58;;;;;;;0.10;0.10;;;;;;;10.31;55.89;101944.44;7356731;19;20015;-63
2023/04/04 02:20:24;;;;;;;0.00;0.00;;;;;;;10.42;56.11;101957.47;7355992;19;20580;-63
2023/04/04 02:22:53;;;;;;;0.10;0.10;;;;;;;10.41;56.29;101953.13;7356591;19;20052;-63
2023/04/04 02:25:24;;;;;;;0.00;0.00;;;;;;;10.43;56.15;101954.00;7353912;19;20025;-63
2023/04/04 02:27:49;;;;;;;0.10;0.10;;;;;;;10.42;56.91;101957.47;7353290;19;20546;-63
2023/04/04 02:30:15;;;;;;;0.03;0.03;;;;;;;10.43;56.90;101959.22;7355702;19;20046;-63
2023/04/04 02:32:41;;;;;;;0.00;0.00;;;;;;;10.43;56.96;101954.00;7357154;19;20016;-63
2023/04/04 02:35:07;;;;;;;0.00;0.00;;;;;;;10.43;57.03;101956.59;7352598;19;20019;-63
2023/04/04 02:37:32;;;;;;;0.00;0.00;;;;;;;10.36;57.14;101941.84;7355910;19;20511;-63
2023/04/04 02:39:58;;;;;;;0.00;0.00;;;;;;;10.44;57.04;101954.84;7353869;19;20027;-63
2023/04/04 02:42:23;;;;;;;0.00;0.00;;;;;;;10.12;57.15;101907.03;7354073;19;20660;-63
2023/04/04 02:44:49;;;;;;;0.00;0.00;;;;;;;10.43;57.44;101951.38;7352792;19;20046;-63
2023/04/04 02:47:15;;;;;;;0.00;0.00;;;;;;;10.36;57.02;101952.28;7351082;19;20029;-63
2023/04/04 02:49:41;;;;;;;0.00;0.00;;;;;;;10.41;57.10;101953.13;7355811;19;20010;-63
2023/04/04 02:52:07;;;;;;;0.00;0.00;;;;;;;10.37;57.66;101948.78;7351875;19;20021;-63
2023/04/04 02:54:32;;;;;;;0.00;0.00;;;;;;;10.39;57.28;101958.38;7355740;19;20376;-63
2023/04/04 02:56:58;;;;;;;0.00;0.00;;;;;;;9.87;57.27;101866.16;7356301;19;20019;-63
2023/04/04 02:59:23;;;;;;;0.00;0.00;;;;;;;10.38;57.55;101950.53;7347854;19;20014;-63
2023/04/04 03:01:48;;;;;;;0.10;0.10;;;;;;;10.37;57.18;101954.00;7354562;19;20018;-63
2023/04/04 03:04:14;;;;;;;0.00;0.00;;;;;;;10.35;57.08;101947.94;7333397;19;20014;-63
2023/04/04 03:06:40;;;;;;;0.00;0.00;;;;;;;10.32;56.86;101951.41;7348448;19;20459;-63
2023/04/04 03:09:05;;;;;;;0.00;0.00;;;;;;;10.24;57.26;101936.63;7357927;19;20533;-63
2023/04/04 03:11:31;;;;;;;0.00;0.00;;;;;;;10.24;56.93;101944.44;7351423;19;20453;-63
2023/04/04 03:13:56;;;;;;;0.00;0.00;;;;;;;10.30;57.37;101947.06;7357514;19;20027;-63
2023/04/04 03:16:22;;;;;;;0.00;0.00;;;;;;;10.28;57.25;101941.84;7354803;19;20035;-63
2023/04/04 03:18:48;;;;;;;0.00;0.00;;;;;;;10.26;57.46;101950.56;7350119;19;20010;-63
2023/04/04 03:21:13;;;;;;;0.05;0.05;;;;;;;10.18;57.51;101931.38;7343250;19;20024;-63
2023/04/04 03:23:39;;;;;;;0.00;0.00;;;;;;;10.24;57.42;101942.72;7354182;19;20013;-63
2023/04/04 03:26:04;;;;;;;0.08;0.08;;;;;;;10.23;57.80;101938.31;7354715;19;20022;-64
2023/04/04 03:28:30;;;;;;;0.00;0.00;;;;;;;10.23;57.81;101927.00;7358860;19;20801;-63
2023/04/04 03:30:56;;;;;;;0.10;0.10;;;;;;;10.23;57.98;101929.63;7355177;19;20034;-63
2023/04/04 03:33:22;;;;;;;0.00;0.00;;;;;;;10.21;57.73;101932.25;7354410;19;20030;-63
2023/04/04 03:35:47;;;;;;;0.00;0.00;;;;;;;10.18;58.26;101926.16;7353333;19;20834;-63
2023/04/04 03:38:13;;;;;;;0.08;0.08;;;;;;;10.20;57.89;101927.03;7358867;19;20010;-64
2023/04/04 03:40:38;;;;;;;0.10;0.10;;;;;;;10.17;58.19;101924.41;7355598;19;20003;-63
2023/04/04 03:43:07;;;;;;;0.00;0.00;;;;;;;10.19;58.17;101922.66;7352369;19;20018;-63
2023/04/04 03:45:35;;;;;;;0.00;0.00;;;;;;;10.07;58.03;101907.91;7356908;19;20014;-63
2023/04/04 03:48:01;;;;;;;0.00;0.00;;;;;;;10.13;58.14;101921.81;7352975;19;20014;-63
2023/04/04 03:50:26;;;;;;;0.00;0.00;;;;;;;10.12;58.19;101912.25;7356768;19;20017;-63
2023/04/04 03:52:52;;;;;;;0.03;0.03;;;;;;;10.12;58.17;101912.25;7356479;19;20604;-63
2023/04/04 03:55:17;;;;;;;0.00;0.00;;;;;;;10.11;58.44;101910.50;7355320;19;20457;-63
2023/04/04 03:57:43;;;;;;;0.00;0.00;;;;;;;10.11;58.39;101915.72;7355779;19;20479;-63
2023/04/04 04:00:09;;;;;;;0.00;0.00;;;;;;;10.11;58.78;101909.66;7355167;19;20546;-63
2023/04/04 04:02:34;;;;;;;0.00;0.00;;;;;;;10.06;58.49;101904.44;7356036;19;20034;-63
2023/04/04 04:05:00;;;;;;;0.00;0.00;;;;;;;10.05;58.88;101900.09;7354697;19;20011;-63
2023/04/04 04:07:25;;;;;;;0.00;0.00;;;;;;;10.12;59.02;101908.75;7354370;19;20082;-63
2023/04/04 04:09:50;;;;;;;0.00;0.00;;;;;;;10.11;58.80;101905.28;7354091;19;20021;-63
2023/04/04 04:12:16;;;;;;;0.00;0.00;;;;;;;10.13;58.70;101908.75;7355078;19;20941;-63
2023/04/04 04:14:41;;;;;;;0.00;0.00;;;;;;;10.14;58.68;101910.53;7355355;19;20014;-63
2023/04/04 04:17:07;;;;;;;0.00;0.00;;;;;;;10.16;59.25;101913.13;7354758;19;20003;-63
2023/04/04 04:19:32;;;;;;;0.00;0.00;;;;;;;10.18;59.24;101910.50;7354829;19;20669;-63
2023/04/04 04:21:57;;;;;;;0.00;0.00;;;;;;;10.19;59.38;101907.91;7356623;19;20017;-63
2023/04/04 04:24:23;;;;;;;0.00;0.00;;;;;;;10.11;59.02;101891.38;7357806;19;20132;-63
2023/04/04 04:26:48;;;;;;;0.00;0.00;;;;;;;10.22;59.04;101907.00;7359133;19;20010;-63
2023/04/04 04:29:15;;;;;;;0.00;0.00;;;;;;;10.21;58.84;101889.63;7361390;19;20627;-63
2023/04/04 04:31:40;;;;;;;0.00;0.00;;;;;;;10.22;58.65;101887.00;7361414;19;20026;-63
2023/04/04 04:34:07;;;;;;;0.00;0.00;;;;;;;10.23;58.71;101878.28;7359361;19;20007;-63
2023/04/04 04:36:33;;;;;;;0.00;0.00;;;;;;;10.13;58.90;101863.50;7361643;19;20462;-64
2023/04/04 04:38:58;;;;;;;0.00;0.00;;;;;;;10.25;58.65;101875.72;7362212;19;20553;-63
2023/04/04 04:41:24;;;;;;;0.00;0.00;;;;;;;10.20;58.71;101867.00;7355697;19;20011;-63
2023/04/04 04:43:51;;;;;;;0.00;0.00;;;;;;;10.26;58.80;101867.88;7360739;19;20014;-63
2023/04/04 04:46:16;;;;;;;0.00;0.00;;;;;;;10.24;59.03;101864.41;7357840;19;20018;-63
2023/04/04 04:48:42;;;;;;;0.00;0.00;;;;;;;10.29;58.89;101877.44;7360003;19;20010;-63
2023/04/04 04:51:07;;;;;;;0.00;0.00;;;;;;;10.27;58.89;101869.59;7359712;19;20066;-63
2023/04/04 04:53:33;;;;;;;0.00;0.00;;;;;;;10.24;58.61;101853.06;7360822;19;20099;-63
2023/04/04 04:55:58;;;;;;;0.00;0.00;;;;;;;10.35;58.74;101875.69;7361806;19;20006;-63
2023/04/04 04:58:24;;;;;;;0.00;0.00;;;;;;;10.36;58.50;101874.81;7356805;19;20342;-63
2023/04/04 05:00:55;;;;;;;0.00;0.00;;;;;;;10.40;58.75;101870.47;7362288;19;20025;-63
2023/04/04 05:03:20;;;;;;;0.10;0.10;;;;;;;10.39;58.66;101873.91;7356737;19;20458;-62
2023/04/04 05:05:46;;;;;;;0.00;0.00;;;;;;;10.40;58.60;101878.28;7360329;19;20036;-63
2023/04/04 05:08:11;;;;;;;0.00;0.00;;;;;;;10.41;58.68;101881.78;7358144;19;20006;-63
2023/04/04 05:10:37;;;;;;;0.03;0.03;;;;;;;10.42;58.58;101878.28;7357544;19;20374;-63
2023/04/04 05:13:02;;;;;;;0.10;0.10;;;;;;;10.44;58.89;101881.75;7356960;19;20117;-63
2023/04/04 05:15:28;;;;;;;0.00;0.00;;;;;;;10.43;59.38;101875.66;7360017;19;20757;-63
2023/04/04 05:17:53;;;;;;;0.00;0.00;;;;;;;10.39;59.18;101863.47;7359235;19;20561;-63
2023/04/04 05:20:19;;;;;;;0.00;0.00;;;;;;;10.45;59.46;101873.91;7360597;19;21075;-63
2023/04/04 05:22:45;;;;;;;0.00;0.00;;;;;;;10.44;59.39;101864.34;7360503;19;20025;-63
2023/04/04 05:25:11;;;;;;;0.00;0.00;;;;;;;10.45;59.37;101863.47;7359988;19;20036;-63
2023/04/04 05:27:37;;;;;;;0.03;0.03;;;;;;;10.47;59.60;101868.69;7357987;19;20014;-63
2023/04/04 05:30:03;;;;;;;0.00;0.00;;;;;;;10.44;59.18;101866.97;7357416;19;20578;-63
2023/04/04 05:32:28;;;;;;;0.10;0.10;;;;;;;10.45;59.02;101858.25;7360768;19;20010;-63
2023/04/04 05:34:54;;;;;;;0.00;0.00;;;;;;;10.45;59.27;101858.25;7358560;19;20868;-63
2023/04/04 05:37:19;;;;;;;0.00;0.00;;;;;;;10.45;59.46;101862.63;7357461;19;20044;-63
2023/04/04 05:39:46;;;;;;;0.00;0.00;;;;;;;10.40;59.34;101852.19;7360294;19;20025;-63
2023/04/04 05:42:11;;;;;;;0.10;0.10;;;;;;;10.47;59.29;101861.72;7356429;19;20014;-63
2023/04/04 05:44:37;;;;;;;0.00;0.00;;;;;;;10.47;58.76;101863.47;7359650;19;23092;-63
2023/04/04 05:47:02;;;;;;;0.10;0.10;;;;;;;10.47;59.17;101872.16;7356194;19;20014;-63
2023/04/04 05:49:27;;;;;;;0.10;0.10;;;;;;;10.46;58.35;101870.44;7359990;19;20006;-63
2023/04/04 05:51:55;;;;;;;0.00;0.00;;;;;;;10.48;58.61;101873.88;7355800;19;20469;-63
2023/04/04 05:54:21;;;;;;;;;;;;;;;10.51;57.68;101883.47;7361130;19;20567;-63
2023/04/04 05:56:46;;;;;;;0.00;0.00;;;;;;;10.50;58.97;101876.53;7359680;19;19993;-63
2023/04/04 05:59:12;;;;;;;0.00;0.00;;;;;;;10.47;59.02;101877.38;7348333;19;20485;-63
2023/04/04 06:01:37;;;;;;;0.00;0.00;;;;;;;10.49;58.75;101873.03;7352587;19;20010;-63
2023/04/04 06:04:03;;;;;;;0.00;0.00;;;;;;;10.47;58.93;101881.75;7356633;19;20014;-63
2023/04/04 06:06:28;;;;;;;0.00;0.00;;;;;;;10.36;59.13;101861.75;7355329;19;20070;-63
2023/04/04 06:08:54;;;;;;;0.00;0.00;;;;;;;10.44;59.02;101877.41;7358053;19;20017;-64
2023/04/04 06:11:21;;;;;;;0.05;0.05;;;;;;;10.41;59.48;101869.56;7348437;19;20011;-63
2023/04/04 06:13:46;;;;;;;0.00;0.00;;;;;;;10.52;59.49;101895.66;7356704;19;20111;-63
2023/04/04 06:16:12;;;;;;;0.00;0.00;;;;;;;10.54;59.43;101894.78;7351745;19;20074;-63
2023/04/04 06:18:37;;;;;;;0.03;0.03;;;;;;;10.56;59.84;101885.19;7357347;19;20019;-63
2023/04/04 06:21:02;;;;;;;0.00;0.00;;;;;;;10.58;59.71;101888.66;7351542;19;20074;-63
2023/04/04 06:23:28;;;;;;;0.00;0.00;;;;;;;10.30;60.04;101837.41;7355600;19;20006;-63
2023/04/04 06:25:53;;;;;;;0.00;0.00;;;;;;;10.63;60.09;101894.72;7356574;19;20010;-63
2023/04/04 06:28:19;;;;;;;0.08;0.08;;;;;;;10.67;59.75;101889.50;7358019;19;20496;-63
2023/04/04 06:30:44;;;;;;;0.00;0.00;;;;;;;10.69;59.65;101887.75;7352479;19;20074;-63
2023/04/04 06:33:10;;;;;;;0.10;0.10;;;;;;;10.71;60.02;101888.63;7356116;19;20010;-63
2023/04/04 06:35:36;;;;;;;0.10;0.10;;;;;;;10.65;59.84;101884.28;7330885;19;20023;-63
2023/04/04 06:38:03;;;;;;;0.00;0.00;;;;;;;10.74;59.57;101899.03;7349140;19;20449;-63
2023/04/04 06:40:28;;;;;;;0.00;0.00;;;;;;;10.75;59.66;101899.06;7350341;19;20074;-63
2023/04/04 06:42:56;;;;;;;0.00;0.00;;;;;;;10.76;59.92;101900.78;7349231;19;20378;-63
2023/04/04 06:45:26;;;;;;;0.00;0.00;;;;;;;10.57;60.04;101867.78;7352556;19;20825;-63
2023/04/04 06:47:53;;;;;;;0.00;0.00;;;;;;;10.81;59.88;101898.16;7354807;19;20982;-63
2023/04/04 06:50:19;;;;;;;0.00;0.00;;;;;;;10.72;59.80;101872.06;7353875;19;20018;-63
2023/04/04 06:52:44;;;;;;;0.00;0.00;;;;;;;10.84;59.83;101898.13;7353768;19;20006;-63
2023/04/04 06:55:10;;;;;;;0.00;0.00;;;;;;;10.58;59.87;101849.47;7354908;19;20052;-63
2023/04/04 06:57:37;;;;;;;0.00;0.00;;;;;;;10.87;60.11;101898.13;7353032;19;20013;-63
2023/04/04 07:00:03;;;;;;;0.00;0.00;;;;;;;10.87;60.51;101898.13;7355217;19;20025;-63
2023/04/04 07:02:28;;;;;;;0.00;0.00;;;;;;;10.82;60.27;101890.31;7352327;19;22268;-63
2023/04/04 07:04:54;;;;;;;0.00;0.00;;;;;;;10.85;60.50;101894.66;7354015;19;20097;-63
2023/04/04 07:07:19;;;;;;;0.08;0.08;;;;;;;10.84;60.44;101898.13;7353690;19;20491;-63
2023/04/04 07:09:45;;;;;;;0.00;0.00;;;;;;;10.84;60.52;101898.13;7357026;19;20002;-63
2023/04/04 07:12:10;;;;;;;0.00;0.00;;;;;;;10.84;60.70;101882.44;7348856;19;20950;-63
2023/04/04 07:14:36;;;;;;;0.00;0.00;;;;;;;10.84;60.79;101890.28;7353945;19;20018;-63
2023/04/04 07:17:01;;;;;;;0.05;0.05;;;;;;;10.86;60.60;101883.31;7349802;19;20018;-63
2023/04/04 07:19:27;;;;;;;0.00;0.00;;;;;;;10.86;60.94;101876.34;7352300;19;20017;-63
2023/04/04 07:21:54;;;;;;;0.00;0.00;;;;;;;10.90;60.36;101880.69;7353006;19;20074;-63
2023/04/04 07:24:19;;;;;;;0.10;0.10;;;;;;;10.90;60.73;101878.09;7319504;19;20017;-63
2023/04/04 07:26:45;;;;;;;0.00;0.00;;;;;;;10.96;60.42;101887.63;7343523;19;20015;-63
2023/04/04 07:29:10;;;;;;;0.00;0.00;;;;;;;10.99;60.93;101884.13;7342978;19;21030;-63
2023/04/04 07:31:36;;;;;;;0.00;0.00;;;;;;;11.02;60.64;101878.88;7346413;19;20009;-63
2023/04/04 07:34:02;;;;;;;0.00;0.00;;;;;;;10.68;60.71;101815.47;7345909;19;20361;-64
2023/04/04 07:36:28;;;;;;;0.00;0.00;;;;;;;11.09;60.76;101876.22;7342976;19;20791;-63
2023/04/04 07:38:53;;;;;;;0.10;0.10;;;;;;;11.14;60.77;101882.28;7343335;19;20021;-63
2023/04/04 07:41:20;;;;;;;0.00;0.00;;;;;;;11.21;60.80;101877.03;7345369;19;20006;-63
2023/04/04 07:43:46;;;;;;;0.00;0.00;;;;;;;11.26;60.62;101875.25;7342367;19;20010;-63
2023/04/04 07:46:11;;;;;;;0.00;0.00;;;;;;;11.32;60.69;101870.84;7344015;19;20396;-63
2023/04/04 07:48:37;;;;;;;0.00;0.00;;;;;;;11.36;60.48;101872.56;7341513;19;20078;-63
2023/04/04 07:51:05;;;;;;;0.00;0.00;;;;;;;11.37;60.42;101857.75;7338673;19;20367;-63
2023/04/04 07:53:31;;;;;;;0.00;0.00;;;;;;;11.49;60.91;101857.63;7337433;19;20359;-63
2023/04/04 07:55:57;;;;;;;0.10;0.10;;;;;;;11.55;60.62;101849.72;7342412;19;20056;-64
2023/04/04 07:58:22;;;;;;;0.10;0.10;;;;;;;11.60;60.47;101850.56;7342240;19;20020;-63
2023/04/04 08:00:48;;;;;;;0.00;0.00;;;;;;;11.67;60.22;101857.50;7350991;19;20459;-63
2023/04/04 08:03:13;;;;;;;0.00;0.00;;;;;;;11.73;59.91;101855.69;7346354;19;20034;-63
2023/04/04 08:05:40;;;;;;;0.00;0.00;;;;;;;11.79;59.83;101846.03;7333083;19;21200;-63
2023/04/04 08:08:06;;;;;;;0.10;0.10;;;;;;;11.82;59.32;101845.19;7343707;19;20055;-63
2023/04/04 08:10:31;;;;;;;0.00;0.00;;;;;;;11.79;59.27;101845.16;7345732;19;20010;-63
2023/04/04 08:12:57;;;;;;;0.00;0.00;;;;;;;11.87;59.38;101853.88;7349716;19;20030;-63
2023/04/04 08:15:22;;;;;;;0.00;0.00;;;;;;;11.88;59.23;101845.13;7347878;19;20009;-64
2023/04/04 08:17:48;;;;;;;0.00;0.00;;;;;;;11.87;59.67;101839.03;7346945;19;20147;-63
2023/04/04 08:20:14;;;;;;;0.08;0.08;;;;;;;11.90;59.48;101838.97;7344994;19;20131;-64
2023/04/04 08:22:41;;;;;;;0.00;0.00;;;;;;;11.62;59.25;101785.16;7349206;19;20014;-63
2023/04/04 08:25:08;;;;;;;0.00;0.00;;;;;;;11.97;59.33;101834.56;7345238;19;20021;-63
2023/04/04 08:27:33;;;;;;;0.00;0.00;;;;;;;12.03;59.05;101839.72;7338562;19;20034;-63
2023/04/04 08:29:59;;;;;;;0.00;0.00;;;;;;;12.08;58.98;101843.16;7348149;19;20011;-63
2023/04/04 08:32:25;;;;;;;0.00;0.00;;;;;;;12.14;59.37;101835.25;7334353;19;20540;-63
2023/04/04 08:34:50;;;;;;;0.00;0.00;;;;;;;12.18;58.86;101828.22;7331881;19;20014;-63
2023/04/04 08:37:16;;;;;;;0.00;0.00;;;;;;;12.22;58.93;101831.69;7334704;19;20039;-63
2023/04/04 08:39:41;;;;;;;0.10;0.10;;;;;;;12.25;59.43;101826.41;7343880;19;20014;-63
2023/04/04 08:42:08;;;;;;;0.00;0.00;;;;;;;12.30;59.03;101822.84;7345025;19;20011;-63
2023/04/04 08:44:35;;;;;;;0.00;0.00;;;;;;;12.37;58.55;101829.75;7345855;19;20017;-63
2023/04/04 08:47:04;;;;;;;0.00;0.00;;;;;;;12.47;58.55;101833.13;7350056;19;20010;-63
2023/04/04 08:49:34;;;;;;;0.00;0.00;;;;;;;12.58;58.28;101833.00;7347953;19;20007;-63
2023/04/04 08:52:01;;;;;;;0.03;0.03;;;;;;;12.65;58.70;101830.25;7346153;19;20463;-64
2023/04/04 08:54:29;;;;;;;0.00;0.00;;;;;;;12.74;58.66;101821.41;7346596;19;20631;-63
2023/04/04 08:56:55;;;;;;;0.10;0.10;;;;;;;12.87;57.95;101822.09;7350194;19;20738;-63
2023/04/04 08:59:20;;;;;;;0.10;0.10;;;;;;;12.89;57.88;101801.97;7346819;19;20102;-63
2023/04/04 09:01:46;;;;;;;0.10;0.10;;;;;;;13.08;57.55;101821.81;7348836;19;20110;-64
2023/04/04 09:04:12;;;;;;;0.10;0.10;;;;;;;13.05;57.44;101798.22;7344486;19;20466;-63
2023/04/04 09:06:39;;;;;;;0.00;0.00;;;;;;;13.11;57.05;101790.25;7349111;19;20003;-63
2023/04/04 09:09:06;;;;;;;0.00;0.00;;;;;;;13.27;56.89;101803.16;7345549;19;20007;-63
2023/04/04 09:11:32;;;;;;;0.00;0.00;;;;;;;13.30;56.07;101813.63;7348486;19;20010;-63
2023/04/04 09:14:01;;;;;;;0.00;0.00;;;;;;;13.35;56.05;101809.16;7349090;19;20002;-63
2023/04/04 09:16:27;;;;;;;0.00;0.00;;;;;;;13.34;56.62;101810.06;7345084;19;20026;-64
2023/04/04 09:18:52;;;;;;;0.00;0.00;;;;;;;13.40;55.96;101820.44;7348269;19;20574;-63
2023/04/04 09:21:18;;;;;;;0.10;0.10;;;;;;;13.43;56.02;101820.38;7345674;19;20017;-64
2023/04/04 09:23:43;;;;;;;0.00;0.00;;;;;;;13.51;55.85;101829.00;7338975;19;20019;-63
2023/04/04 09:26:10;;;;;;;0.00;0.00;;;;;;;13.54;56.09;101823.72;7344763;19;20025;-64
2023/04/04 09:28:35;;;;;;;0.00;0.00;;;;;;;13.61;55.23;101817.44;7332598;19;20791;-64
2023/04/04 09:31:03;;;;;;;0.00;0.00;;;;;;;13.69;55.43;101817.34;7346482;19;20018;-63
2023/04/04 09:33:30;;;;;;;0.00;0.00;;;;;;;13.77;54.97;101811.03;7343238;19;20379;-64
2023/04/04 09:36:16;;;;;;;0.00;0.00;;;;;;;13.90;56.22;101814.31;7347067;19;20097;-64
2023/04/04 09:38:43;;;;;;;0.10;0.10;;;;;;;13.85;55.37;101796.91;7347455;19;20018;-64
2023/04/04 09:41:09;;;;;;;0.10;0.10;;;;;;;13.95;55.12;101808.97;7344221;19;20022;-63
2023/04/04 09:43:36;;;;;;;0.00;0.00;;;;;;;14.08;54.66;101805.19;7347431;19;20006;-63
2023/04/04 09:46:02;;;;;;;0.00;0.00;;;;;;;14.15;54.70;101813.84;7347767;19;20614;-63
2023/04/04 09:48:32;;;;;;;0.03;0.03;;;;;;;14.26;54.82;101804.84;7348035;19;20014;-63
2023/04/04 09:50:58;;;;;;;0.00;0.00;;;;;;;14.32;53.89;101800.38;7346380;19;20018;-63
2023/04/04 09:53:24;;;;;;;0.10;0.10;;;;;;;14.40;53.79;101806.34;7348071;19;20121;-63
2023/04/04 09:55:51;;;;;;;0.00;0.00;;;;;;;14.48;54.01;101804.44;7345149;19;20002;-63
2023/04/04 09:58:22;;;;;;;0.00;0.00;;;;;;;14.60;53.20;101800.66;7348503;19;20014;-64
2023/04/04 10:00:50;;;;;;;0.10;0.10;;;;;;;14.60;52.80;101777.91;7346671;19;20010;-64
2023/04/04 10:03:17;;;;;;;0.00;0.00;;;;;;;14.76;52.47;101789.78;7347367;19;20010;-64
2023/04/04 10:05:46;;;;;;;0.00;0.00;;;;;;;14.86;52.38;101794.84;7344453;19;20038;-64
2023/04/04 10:08:21;;;;;;;0.08;0.08;;;;;;;14.95;53.00;101781.44;7345779;19;20014;-64
2023/04/04 10:10:50;;;;;;;0.10;0.10;;;;;;;14.67;52.09;101742.66;7346503;19;20014;-63
2023/04/04 10:13:27;;;;;;;0.10;0.10;;;;;;;15.07;52.63;101790.84;7341949;19;20010;-63
2023/04/04 10:15:56;;;;;;;0.00;0.00;;;;;;;15.09;51.58;101789.88;7346820;19;20018;-63
2023/04/04 10:18:29;;;;;;;0.10;0.10;;;;;;;15.25;52.55;101803.53;7346718;19;20862;-64
2023/04/04 10:20:56;;;;;;;0.10;0.10;;;;;;;15.28;51.73;101804.34;7345397;19;20014;-64
2023/04/04 10:23:25;;;;;;;0.00;0.00;;;;;;;15.38;51.58;101810.22;7346749;19;21106;-63
2023/04/04 10:25:51;;;;;;;0.10;0.10;;;;;;;15.43;51.15;101796.97;7346458;19;20030;-64
2023/04/04 10:28:19;;;;;;;0.08;0.08;;;;;;;15.45;50.90;101789.88;7348713;19;20018;-63
2023/04/04 10:30:48;;;;;;;0.00;0.00;;;;;;;15.51;51.04;101797.63;7345590;19;20042;-64
2023/04/04 10:33:22;;;;;;;0.10;0.10;;;;;;;15.50;51.03;101798.53;7343394;19;20094;-64
2023/04/04 10:35:52;;;;;;;0.10;0.10;;;;;;;15.51;50.87;101805.50;7344432;19;20449;-63
2023/04/04 10:38:22;;;;;;;0.10;0.10;;;;;;;15.54;50.80;101805.44;7337728;19;20010;-63
2023/04/04 10:40:50;;;;;;;0.08;0.08;;;;;;;15.47;50.28;101782.81;7342705;19;20037;-63
2023/04/04 10:43:20;;;;;;;0.00;0.00;;;;;;;15.63;49.97;101797.34;7342280;19;20014;-63
2023/04/04 10:45:45;;;;;;;0.00;0.00;;;;;;;15.67;49.81;101791.09;7348051;19;20049;-63
2023/04/04 10:48:11;;;;;;;0.10;0.10;;;;;;;15.69;50.35;101789.28;7348303;19;20046;-63
2023/04/04 10:50:38;;;;;;;0.00;0.00;;;;;;;15.77;50.14;101797.84;7349256;19;20072;-63
2023/04/04 10:53:05;;;;;;;0.00;0.00;;;;;;;15.80;49.63;101792.47;7348213;19;20051;-63
2023/04/04 10:55:31;;;;;;;0.10;0.10;;;;;;;15.85;50.45;101789.72;7348245;19;20010;-63
2023/04/04 10:57:58;;;;;;;0.05;0.05;;;;;;;15.66;50.46;101756.88;7347129;19;20730;-64
2023/04/04 11:00:23;;;;;;;0.05;0.05;;;;;;;16.01;49.68;101788.38;7348708;19;20784;-64
2023/04/04 11:02:52;;;;;;;0.08;0.08;;;;;;;16.18;49.33;101787.06;7348707;19;20014;-63
2023/04/04 11:05:19;;;;;;;0.00;0.00;;;;;;;16.25;48.65;101778.94;7349846;19;20768;-63
2023/04/04 11:07:45;;;;;;;0.10;0.10;;;;;;;15.82;48.04;101690.59;7347971;19;20006;-63
2023/04/04 11:10:15;;;;;;;0.00;0.00;;;;;;;16.41;48.98;101783.75;7346803;19;20027;-64
2023/04/04 11:12:46;;;;;;;0.10;0.10;;;;;;;16.39;48.47;101767.13;7341972;19;20031;-63
2023/04/04 11:15:13;;;;;;;0.10;0.10;;;;;;;16.38;47.01;101763.63;7348143;19;20918;-63
2023/04/04 11:17:48;;;;;;;0.10;0.10;;;;;;;16.37;49.09;101756.59;7337271;19;20014;-63
2023/04/04 11:20:34;;;;;;;0.10;0.10;;;;;;;16.32;48.76;101748.88;7349439;19;20565;-63